createdAt,value
2018-05-26T00:02:07.769Z,70.90
2018-05-26T00:07:11.006Z,70.90
2018-05-26T00:12:13.526Z,70.80
2018-05-26T00:17:15.966Z,70.80
2018-05-26T00:22:19.298Z,71.00
2018-05-26T00:27:22.714Z,70.90
2018-05-26T00:32:25.197Z,70.90
2018-05-26T00:37:27.722Z,70.90
2018-05-26T00:42:31.579Z,70.90
2018-05-26T00:47:34.414Z,71.00
2018-05-26T00:52:37.647Z,71.50
2018-05-26T00:57:40.103Z,71.40
2018-05-26T01:02:42.619Z,71.60
2018-05-26T01:07:45.565Z,71.50
2018-05-26T01:12:48.030Z,71.20
2018-05-26T01:17:57.771Z,71.00
2018-05-26T01:23:01.082Z,70.20
2018-05-26T01:28:04.363Z,70.40
2018-05-26T01:33:06.830Z,70.30
2018-05-26T01:38:09.345Z,70.40
2018-05-26T01:43:11.793Z,70.20
2018-05-26T01:48:14.277Z,70.00
2018-05-26T01:53:16.742Z,70.10
2018-05-26T01:58:20.032Z,70.10
2018-05-26T02:03:22.502Z,70.00
2018-05-26T02:08:25.141Z,70.00
2018-05-26T02:13:27.615Z,69.80
2018-05-26T02:18:30.066Z,69.90
2018-05-26T02:23:32.532Z,69.80
2018-05-26T02:28:35.763Z,69.70
2018-05-26T02:33:38.272Z,69.50
2018-05-26T02:38:40.688Z,69.60
2018-05-26T02:43:43.157Z,69.60
2018-05-26T02:48:45.613Z,69.70
2018-05-26T02:53:48.923Z,69.70
2018-05-26T02:58:52.127Z,69.20
2018-05-26T03:03:54.849Z,69.80
2018-05-26T03:09:03.066Z,69.70
2018-05-26T03:14:12.109Z,69.80
2018-05-26T03:19:15.337Z,69.90
2018-05-26T03:24:17.778Z,69.70
2018-05-26T03:29:20.229Z,69.80
2018-05-26T03:34:22.693Z,69.90
2018-05-26T03:39:25.983Z,69.50
2018-05-26T03:44:29.201Z,69.50
2018-05-26T03:49:31.663Z,69.50
2018-05-26T03:54:46.078Z,69.40
2018-05-26T04:00:10.419Z,69.60
2018-05-26T04:05:12.953Z,69.90
2018-05-26T04:10:15.426Z,70.20
2018-05-26T04:15:18.683Z,70.80
2018-05-26T04:20:22.793Z,71.20
2018-05-26T04:25:26.021Z,71.00
2018-05-26T04:30:29.367Z,70.90
2018-05-26T04:35:33.447Z,70.70
2018-05-26T04:40:35.964Z,70.60
2018-05-26T04:45:39.317Z,71.10
2018-05-26T04:50:41.765Z,70.90
2018-05-26T04:55:44.984Z,70.90
2018-05-26T05:00:48.204Z,69.80
2018-05-26T05:05:50.663Z,69.80
2018-05-26T05:10:53.129Z,69.20
2018-05-26T05:15:55.583Z,68.60
2018-05-26T05:20:58.053Z,67.70
2018-05-26T05:26:01.282Z,66.30
2018-05-26T05:31:05.070Z,66.20
2018-05-26T05:36:07.511Z,65.70
2018-05-26T05:41:10.950Z,64.50
2018-05-26T05:46:13.504Z,63.50
2018-05-26T05:51:17.722Z,61.20
2018-05-26T05:56:21.001Z,60.20
2018-05-26T06:01:32.252Z,60.00
2018-05-26T06:06:34.716Z,58.50
2018-05-26T06:11:37.152Z,59.50
2018-05-26T06:16:59.540Z,58.30
2018-05-26T06:22:02.106Z,58.40
2018-05-26T06:27:04.642Z,58.00
2018-05-26T06:32:07.085Z,57.00
2018-05-26T06:37:09.552Z,56.60
2018-05-26T06:42:12.793Z,55.10
2018-05-26T06:47:15.291Z,54.90
2018-05-26T06:52:17.762Z,55.20
2018-05-26T06:57:20.289Z,54.90
2018-05-26T07:02:22.812Z,54.10
2018-05-26T07:07:25.324Z,52.30
2018-05-26T07:12:29.063Z,50.80
2018-05-26T07:17:35.270Z,51.70
2018-05-26T07:22:38.511Z,51.50
2018-05-26T07:27:41.939Z,51.50
2018-05-26T07:32:44.466Z,52.00
2018-05-26T07:37:48.226Z,50.10
2018-05-26T07:42:50.777Z,48.70
2018-05-26T07:47:54.032Z,47.80
2018-05-26T07:52:56.576Z,47.60
2018-05-26T07:57:59.831Z,46.70
2018-05-26T08:03:02.348Z,46.30
2018-05-26T08:08:05.850Z,46.70
2018-05-26T08:13:30.007Z,45.10
2018-05-26T08:18:37.973Z,43.40
2018-05-26T08:23:40.435Z,43.60
2018-05-26T08:28:43.694Z,44.20
2018-05-26T08:33:46.165Z,42.30
2018-05-26T08:38:49.770Z,44.00
2018-05-26T08:43:52.227Z,43.70
2018-05-26T08:48:55.469Z,42.40
2018-05-26T08:53:58.915Z,42.30
2018-05-26T08:59:02.435Z,41.70
2018-05-26T09:04:04.946Z,38.90
2018-05-26T09:09:10.654Z,38.50
2018-05-26T09:14:13.174Z,38.30
2018-05-26T09:19:15.807Z,38.40
2018-05-26T09:24:20.978Z,35.30
2018-05-26T09:29:24.240Z,35.60
2018-05-26T09:34:29.283Z,35.50
2018-05-26T09:39:31.773Z,34.80
2018-05-26T09:44:34.315Z,35.60
2018-05-26T09:49:37.716Z,35.10
2018-05-26T09:54:40.397Z,35.40
2018-05-26T09:59:43.319Z,35.20
2018-05-26T10:04:47.658Z,33.80
2018-05-26T10:09:51.022Z,33.50
2018-05-26T10:14:54.052Z,33.40
2018-05-26T10:20:00.634Z,32.30
2018-05-26T10:25:03.465Z,33.30
2018-05-26T10:30:06.495Z,31.10
2018-05-26T10:35:10.049Z,31.60
2018-05-26T10:40:20.817Z,32.20
2018-05-26T10:45:39.458Z,32.10
2018-05-26T10:56:27.372Z,31.80
2018-05-26T11:01:30.601Z,31.50
2018-05-26T11:06:46.148Z,31.30
2018-05-26T11:11:59.506Z,30.80
2018-05-26T11:17:01.972Z,31.20
2018-05-26T11:22:04.445Z,30.80
2018-05-26T11:27:06.915Z,32.10
2018-05-26T11:32:10.135Z,32.20
2018-05-26T11:37:12.592Z,32.70
2018-05-26T11:42:39.226Z,32.20
2018-05-26T11:53:14.518Z,32.30
2018-05-26T11:58:25.924Z,32.80
2018-05-26T12:03:28.376Z,32.70
2018-05-26T12:08:30.872Z,32.90
2018-05-26T12:13:33.374Z,32.60
2018-05-26T12:18:35.812Z,33.60
2018-05-26T12:23:38.267Z,31.80
2018-05-26T12:28:40.814Z,31.30
2018-05-26T12:33:44.118Z,34.20
2018-05-26T12:44:20.431Z,35.70
2018-05-26T12:49:22.885Z,34.40
2018-05-26T12:54:25.325Z,32.60
2018-05-26T12:59:27.781Z,33.10
2018-05-26T13:04:30.246Z,32.00
2018-05-26T13:09:32.760Z,33.20
2018-05-26T13:14:35.213Z,32.10
2018-05-26T13:19:38.458Z,32.50
2018-05-26T13:24:40.954Z,32.40
2018-05-26T13:29:43.549Z,32.30
2018-05-26T13:34:45.987Z,33.00
2018-05-26T13:39:49.947Z,32.60
2018-05-26T13:44:52.435Z,32.50
2018-05-26T13:49:54.953Z,32.60
2018-05-26T13:54:57.493Z,32.80
2018-05-26T13:59:59.945Z,32.90
2018-05-26T14:05:02.407Z,32.50
2018-05-26T14:10:05.706Z,32.30
2018-05-26T14:15:08.910Z,32.60
2018-05-26T14:20:12.126Z,32.10
2018-05-26T14:25:15.475Z,33.10
2018-05-26T14:30:17.906Z,33.10
2018-05-26T14:35:20.368Z,32.90
2018-05-26T14:40:22.857Z,32.00
2018-05-26T14:45:25.323Z,31.50
2018-05-26T14:50:28.526Z,32.00
2018-05-26T14:55:32.585Z,32.40
2018-05-26T15:00:35.083Z,32.40
2018-05-26T15:05:37.537Z,32.00
2018-05-26T15:10:40.853Z,34.70
2018-05-26T15:15:44.065Z,35.30
2018-05-26T15:20:47.370Z,34.50
2018-05-26T15:25:49.806Z,34.40
2018-05-26T15:30:56.585Z,34.40
2018-05-26T15:35:59.983Z,33.30
2018-05-26T15:41:03.197Z,33.50
2018-05-26T15:46:05.649Z,32.90
2018-05-26T15:51:08.858Z,34.60
2018-05-26T15:56:11.301Z,34.60
2018-05-26T16:01:13.947Z,35.20
2018-05-26T16:06:16.437Z,36.30
2018-05-26T16:11:18.873Z,36.00
2018-05-26T16:16:21.318Z,36.30
2018-05-26T16:21:23.765Z,36.30
2018-05-26T16:26:26.355Z,36.80
2018-05-26T16:31:28.858Z,37.10
2018-05-26T16:36:31.309Z,37.90
2018-05-26T16:41:33.754Z,38.20
2018-05-26T16:46:36.235Z,39.20
2018-05-26T16:51:38.698Z,38.40
2018-05-26T16:56:41.931Z,38.30
2018-05-26T17:01:44.548Z,38.20
2018-05-26T17:06:46.973Z,37.70
2018-05-26T17:11:49.504Z,38.10
2018-05-26T17:16:51.958Z,38.00
2018-05-26T17:21:55.220Z,38.10
2018-05-26T17:26:57.664Z,38.10
2018-05-26T17:32:00.110Z,38.10
2018-05-26T17:37:02.552Z,38.40
2018-05-26T17:42:05.025Z,38.70
2018-05-26T17:47:07.480Z,39.20
2018-05-26T17:52:10.905Z,39.30
2018-05-26T17:57:13.466Z,39.10
2018-05-26T18:02:16.673Z,39.30
2018-05-26T18:07:19.902Z,39.70
2018-05-26T18:12:22.562Z,39.60
2018-05-26T18:17:25.022Z,40.00
2018-05-26T18:22:27.706Z,40.40
2018-05-26T18:27:30.162Z,40.70
2018-05-26T18:32:32.605Z,40.90
2018-05-26T18:37:35.055Z,41.10
2018-05-26T18:42:38.278Z,41.70
2018-05-26T18:47:40.725Z,41.60
2018-05-26T18:52:43.182Z,41.90
2018-05-26T18:57:45.635Z,42.20
2018-05-26T19:02:48.854Z,43.10
2018-05-26T19:07:51.306Z,43.10
2018-05-26T19:12:53.773Z,43.40
2018-05-26T19:17:56.223Z,44.00
2018-05-26T19:22:58.669Z,44.40
2018-05-26T19:28:01.133Z,44.80
2018-05-26T19:33:03.585Z,45.30
2018-05-26T19:38:06.033Z,45.80
2018-05-26T19:43:08.490Z,46.10
2018-05-26T19:48:10.939Z,46.60
2018-05-26T19:53:13.394Z,46.90
2018-05-26T19:58:15.902Z,47.10
2018-05-26T20:03:18.309Z,47.20
2018-05-26T20:08:20.761Z,47.90
2018-05-26T20:13:23.218Z,48.40
2018-05-26T20:18:25.700Z,48.80
2018-05-26T20:23:28.147Z,49.10
2018-05-26T20:28:31.359Z,50.00
2018-05-26T20:33:33.812Z,49.90
2018-05-26T20:38:36.269Z,50.10
2018-05-26T20:43:38.773Z,50.50
2018-05-26T20:48:41.173Z,51.20
2018-05-26T20:53:43.649Z,51.90
2018-05-26T20:58:46.110Z,52.10
2018-05-26T21:03:48.563Z,52.50
2018-05-26T21:08:51.765Z,53.30
2018-05-26T21:13:55.977Z,54.10
2018-05-26T21:18:58.430Z,54.10
2018-05-26T21:24:00.885Z,53.90
2018-05-26T21:29:03.341Z,54.00
2018-05-26T21:34:05.853Z,54.50
2018-05-26T21:39:09.074Z,55.60
2018-05-26T21:44:11.549Z,55.50
2018-05-26T21:49:14.774Z,55.90
2018-05-26T21:54:17.253Z,55.90
2018-05-26T21:59:19.714Z,56.40
2018-05-26T22:04:22.166Z,56.50
2018-05-26T22:09:24.622Z,56.50
2018-05-26T22:14:27.135Z,56.70
2018-05-26T22:19:30.314Z,57.50
2018-05-26T22:24:32.822Z,57.50
2018-05-26T22:29:35.282Z,57.60
2018-05-26T22:34:37.721Z,57.00
2018-05-26T22:39:40.179Z,56.90
2018-05-26T22:44:42.634Z,56.70
2018-05-26T22:49:45.846Z,55.80
2018-05-26T22:54:49.058Z,55.80
2018-05-26T22:59:51.507Z,55.80
2018-05-26T23:04:53.967Z,55.80
2018-05-26T23:09:56.425Z,55.90
2018-05-26T23:14:58.876Z,55.90
2018-05-26T23:20:01.321Z,55.80
2018-05-26T23:25:03.776Z,55.70
2018-05-26T23:30:07.293Z,55.40
2018-05-26T23:35:10.511Z,55.40
2018-05-26T23:40:12.993Z,55.30
2018-05-26T23:45:15.442Z,55.20
2018-05-26T23:50:17.893Z,55.10
2018-05-26T23:55:20.338Z,55.20
